Baruun-Urt, Mongolia
Current Conditions -  °F | °C
As of 8:30 AM on Saturday 22 Nov 2014 (Local Time) from ZMUB Reporting Station
Clear Clear  
Wind Chill: -9°   Ceiling: Unl
Heat Index: -9°   Visibility: 6mi
Dew Point: -15°   Wind: 2mph
Humidity: 77%   Direction: NA
Pressure: 29.85"   Gusts: NA
Location:  46.68°N, 113.28°E
Report Text: ZMUB 220030Z VRB01MPS CAVOK M23/M26 Q1011 NOSIG RMK QFE651.5 72
Loading
Personal Weather Stations






























Interactive Weather Map New forecast layout! Learn more

10-Day Weather Forecast

Advertisements
Track Severe Weather on mobile